sensor_id;sensor_type;location;lat;lon;timestamp;P1;durP1;ratioP1;P2;durP2;ratioP2
34928;SDS011;21133;48.048;7.724;2024-02-21T00:01:13;28.43;;;11.53;;
34928;SDS011;21133;48.048;7.724;2024-02-21T00:03:39;25.30;;;10.60;;
34928;SDS011;21133;48.048;7.724;2024-02-21T00:06:06;21.17;;;9.07;;
34928;SDS011;21133;48.048;7.724;2024-02-21T00:08:32;15.57;;;8.33;;
34928;SDS011;21133;48.048;7.724;2024-02-21T00:10:58;12.00;;;6.77;;
34928;SDS011;21133;48.048;7.724;2024-02-21T00:13:24;14.90;;;6.23;;
34928;SDS011;21133;48.048;7.724;2024-02-21T00:15:50;10.40;;;7.40;;
34928;SDS011;21133;48.048;7.724;2024-02-21T00:18:16;11.83;;;4.90;;
34928;SDS011;21133;48.048;7.724;2024-02-21T00:20:42;12.10;;;5.17;;
34928;SDS011;21133;48.048;7.724;2024-02-21T00:23:08;7.60;;;5.73;;
34928;SDS011;21133;48.048;7.724;2024-02-21T00:25:34;10.50;;;6.00;;
34928;SDS011;21133;48.048;7.724;2024-02-21T00:28:00;10.93;;;5.50;;
34928;SDS011;21133;48.048;7.724;2024-02-21T00:30:29;5.33;;;4.83;;
34928;SDS011;21133;48.048;7.724;2024-02-21T00:32:55;6.50;;;4.93;;
34928;SDS011;21133;48.048;7.724;2024-02-21T00:35:27;6.10;;;3.30;;
34928;SDS011;21133;48.048;7.724;2024-02-21T00:37:53;5.27;;;2.90;;
34928;SDS011;21133;48.048;7.724;2024-02-21T00:40:22;9.90;;;2.60;;
34928;SDS011;21133;48.048;7.724;2024-02-21T00:42:48;6.83;;;2.87;;
34928;SDS011;21133;48.048;7.724;2024-02-21T00:45:14;4.93;;;2.80;;
34928;SDS011;21133;48.048;7.724;2024-02-21T00:47:40;6.10;;;3.53;;
34928;SDS011;21133;48.048;7.724;2024-02-21T00:50:06;2.87;;;2.03;;
34928;SDS011;21133;48.048;7.724;2024-02-21T00:52:32;1.90;;;1.80;;
34928;SDS011;21133;48.048;7.724;2024-02-21T00:54:58;6.00;;;2.63;;
34928;SDS011;21133;48.048;7.724;2024-02-21T00:57:24;6.60;;;2.73;;
34928;SDS011;21133;48.048;7.724;2024-02-21T00:59:50;2.40;;;2.20;;
34928;SDS011;21133;48.048;7.724;2024-02-21T01:02:16;9.97;;;2.93;;
34928;SDS011;21133;48.048;7.724;2024-02-21T01:04:42;2.17;;;2.07;;
34928;SDS011;21133;48.048;7.724;2024-02-21T01:07:08;7.07;;;2.77;;
34928;SDS011;21133;48.048;7.724;2024-02-21T01:09:34;2.87;;;2.67;;
34928;SDS011;21133;48.048;7.724;2024-02-21T01:12:00;5.03;;;2.10;;
34928;SDS011;21133;48.048;7.724;2024-02-21T01:14:26;6.70;;;2.07;;
34928;SDS011;21133;48.048;7.724;2024-02-21T01:16:52;2.70;;;2.07;;
34928;SDS011;21133;48.048;7.724;2024-02-21T01:19:18;5.30;;;2.23;;
34928;SDS011;21133;48.048;7.724;2024-02-21T01:21:44;3.93;;;2.33;;
34928;SDS011;21133;48.048;7.724;2024-02-21T01:24:10;5.97;;;2.93;;
34928;SDS011;21133;48.048;7.724;2024-02-21T01:26:36;9.90;;;2.60;;
34928;SDS011;21133;48.048;7.724;2024-02-21T01:29:02;4.20;;;2.17;;
34928;SDS011;21133;48.048;7.724;2024-02-21T01:31:28;6.17;;;3.10;;
34928;SDS011;21133;48.048;7.724;2024-02-21T01:33:54;2.50;;;2.30;;
34928;SDS011;21133;48.048;7.724;2024-02-21T01:36:20;5.20;;;2.60;;
34928;SDS011;21133;48.048;7.724;2024-02-21T01:38:46;3.70;;;2.90;;
34928;SDS011;21133;48.048;7.724;2024-02-21T01:41:12;2.67;;;2.43;;
34928;SDS011;21133;48.048;7.724;2024-02-21T01:43:38;4.93;;;2.40;;
34928;SDS011;21133;48.048;7.724;2024-02-21T01:46:04;16.03;;;2.63;;
34928;SDS011;21133;48.048;7.724;2024-02-21T01:48:30;4.37;;;2.50;;
34928;SDS011;21133;48.048;7.724;2024-02-21T01:50:56;2.43;;;2.43;;
34928;SDS011;21133;48.048;7.724;2024-02-21T01:53:24;3.23;;;2.50;;
34928;SDS011;21133;48.048;7.724;2024-02-21T01:55:51;3.87;;;2.27;;
34928;SDS011;21133;48.048;7.724;2024-02-21T01:58:18;4.30;;;3.30;;
34928;SDS011;21133;48.048;7.724;2024-02-21T02:00:45;2.60;;;2.40;;
34928;SDS011;21133;48.048;7.724;2024-02-21T02:03:11;8.90;;;4.00;;
34928;SDS011;21133;48.048;7.724;2024-02-21T02:05:46;2.50;;;2.27;;
34928;SDS011;21133;48.048;7.724;2024-02-21T02:08:13;3.10;;;2.80;;
34928;SDS011;21133;48.048;7.724;2024-02-21T02:10:39;2.03;;;1.90;;
34928;SDS011;21133;48.048;7.724;2024-02-21T02:13:05;3.23;;;2.77;;
34928;SDS011;21133;48.048;7.724;2024-02-21T02:15:41;3.33;;;3.00;;
34928;SDS011;21133;48.048;7.724;2024-02-21T02:18:08;5.23;;;3.10;;
34928;SDS011;21133;48.048;7.724;2024-02-21T02:20:34;4.67;;;3.50;;
34928;SDS011;21133;48.048;7.724;2024-02-21T02:23:01;7.40;;;3.27;;
34928;SDS011;21133;48.048;7.724;2024-02-21T02:25:31;4.80;;;3.20;;
34928;SDS011;21133;48.048;7.724;2024-02-21T02:27:57;2.80;;;2.30;;
34928;SDS011;21133;48.048;7.724;2024-02-21T02:30:23;3.30;;;2.73;;
34928;SDS011;21133;48.048;7.724;2024-02-21T02:32:49;4.03;;;2.70;;
34928;SDS011;21133;48.048;7.724;2024-02-21T02:35:14;5.40;;;2.57;;
34928;SDS011;21133;48.048;7.724;2024-02-21T02:37:47;10.40;;;2.70;;
34928;SDS011;21133;48.048;7.724;2024-02-21T02:40:13;2.27;;;2.07;;
34928;SDS011;21133;48.048;7.724;2024-02-21T02:42:39;6.03;;;3.37;;
34928;SDS011;21133;48.048;7.724;2024-02-21T02:45:05;6.03;;;2.50;;
34928;SDS011;21133;48.048;7.724;2024-02-21T02:47:31;3.90;;;2.00;;
34928;SDS011;21133;48.048;7.724;2024-02-21T02:49:59;2.73;;;2.50;;
34928;SDS011;21133;48.048;7.724;2024-02-21T02:52:25;3.60;;;3.00;;
34928;SDS011;21133;48.048;7.724;2024-02-21T02:54:51;2.13;;;2.00;;
34928;SDS011;21133;48.048;7.724;2024-02-21T02:57:20;2.40;;;2.20;;
34928;SDS011;21133;48.048;7.724;2024-02-21T02:59:49;4.53;;;2.50;;
34928;SDS011;21133;48.048;7.724;2024-02-21T03:02:16;1.53;;;1.43;;
34928;SDS011;21133;48.048;7.724;2024-02-21T03:04:42;5.77;;;2.60;;
34928;SDS011;21133;48.048;7.724;2024-02-21T03:07:08;3.90;;;1.90;;
34928;SDS011;21133;48.048;7.724;2024-02-21T03:09:36;2.10;;;1.00;;
34928;SDS011;21133;48.048;7.724;2024-02-21T03:12:02;1.80;;;1.70;;
34928;SDS011;21133;48.048;7.724;2024-02-21T03:14:28;2.53;;;1.57;;
34928;SDS011;21133;48.048;7.724;2024-02-21T03:16:54;3.27;;;1.50;;
34928;SDS011;21133;48.048;7.724;2024-02-21T03:19:20;2.50;;;2.23;;
34928;SDS011;21133;48.048;7.724;2024-02-21T03:21:46;1.43;;;1.33;;
34928;SDS011;21133;48.048;7.724;2024-02-21T03:24:12;4.30;;;1.30;;
34928;SDS011;21133;48.048;7.724;2024-02-21T03:26:38;2.40;;;1.70;;
34928;SDS011;21133;48.048;7.724;2024-02-21T03:29:05;7.07;;;2.27;;
34928;SDS011;21133;48.048;7.724;2024-02-21T03:31:31;4.63;;;1.57;;
34928;SDS011;21133;48.048;7.724;2024-02-21T03:33:57;7.70;;;2.10;;
34928;SDS011;21133;48.048;7.724;2024-02-21T03:36:23;1.73;;;1.60;;
34928;SDS011;21133;48.048;7.724;2024-02-21T03:38:49;9.00;;;1.93;;
34928;SDS011;21133;48.048;7.724;2024-02-21T03:41:15;4.70;;;1.73;;
34928;SDS011;21133;48.048;7.724;2024-02-21T03:43:41;2.23;;;1.33;;
34928;SDS011;21133;48.048;7.724;2024-02-21T03:46:07;3.33;;;1.43;;
34928;SDS011;21133;48.048;7.724;2024-02-21T03:48:32;1.77;;;1.10;;
34928;SDS011;21133;48.048;7.724;2024-02-21T03:50:58;1.87;;;1.43;;
34928;SDS011;21133;48.048;7.724;2024-02-21T03:53:24;1.70;;;1.20;;
34928;SDS011;21133;48.048;7.724;2024-02-21T03:55:50;3.23;;;1.90;;
34928;SDS011;21133;48.048;7.724;2024-02-21T03:58:16;1.40;;;1.30;;
34928;SDS011;21133;48.048;7.724;2024-02-21T04:00:42;5.43;;;1.47;;
34928;SDS011;21133;48.048;7.724;2024-02-21T04:03:08;4.33;;;1.93;;
34928;SDS011;21133;48.048;7.724;2024-02-21T04:05:34;3.43;;;2.23;;
34928;SDS011;21133;48.048;7.724;2024-02-21T04:08:04;4.80;;;2.37;;
34928;SDS011;21133;48.048;7.724;2024-02-21T04:10:30;2.47;;;1.30;;
34928;SDS011;21133;48.048;7.724;2024-02-21T04:12:56;2.47;;;1.13;;
34928;SDS011;21133;48.048;7.724;2024-02-21T04:15:22;2.53;;;1.87;;
34928;SDS011;21133;48.048;7.724;2024-02-21T04:17:48;1.83;;;1.70;;
34928;SDS011;21133;48.048;7.724;2024-02-21T04:20:14;2.90;;;2.40;;
34928;SDS011;21133;48.048;7.724;2024-02-21T04:22:42;6.57;;;2.70;;
34928;SDS011;21133;48.048;7.724;2024-02-21T04:25:09;5.10;;;2.50;;
34928;SDS011;21133;48.048;7.724;2024-02-21T04:27:39;4.97;;;2.70;;
34928;SDS011;21133;48.048;7.724;2024-02-21T04:30:05;7.77;;;2.67;;
34928;SDS011;21133;48.048;7.724;2024-02-21T04:32:32;5.20;;;2.77;;
34928;SDS011;21133;48.048;7.724;2024-02-21T04:34:58;2.43;;;2.10;;
34928;SDS011;21133;48.048;7.724;2024-02-21T04:37:24;3.47;;;2.33;;
34928;SDS011;21133;48.048;7.724;2024-02-21T04:39:50;1.40;;;1.40;;
34928;SDS011;21133;48.048;7.724;2024-02-21T04:42:16;4.20;;;2.80;;
34928;SDS011;21133;48.048;7.724;2024-02-21T04:44:42;2.50;;;2.30;;
34928;SDS011;21133;48.048;7.724;2024-02-21T04:47:08;2.30;;;2.10;;
34928;SDS011;21133;48.048;7.724;2024-02-21T04:49:34;4.53;;;2.33;;
34928;SDS011;21133;48.048;7.724;2024-02-21T04:52:00;6.30;;;5.00;;
34928;SDS011;21133;48.048;7.724;2024-02-21T04:54:27;2.67;;;2.47;;
34928;SDS011;21133;48.048;7.724;2024-02-21T04:56:53;2.33;;;2.20;;
34928;SDS011;21133;48.048;7.724;2024-02-21T04:59:19;2.20;;;1.90;;
34928;SDS011;21133;48.048;7.724;2024-02-21T05:01:45;2.77;;;1.70;;
34928;SDS011;21133;48.048;7.724;2024-02-21T05:04:11;2.80;;;1.80;;
34928;SDS011;21133;48.048;7.724;2024-02-21T05:06:37;2.93;;;1.87;;
34928;SDS011;21133;48.048;7.724;2024-02-21T05:09:04;6.07;;;2.10;;
34928;SDS011;21133;48.048;7.724;2024-02-21T05:11:30;2.73;;;2.20;;
34928;SDS011;21133;48.048;7.724;2024-02-21T05:13:56;1.80;;;1.80;;
34928;SDS011;21133;48.048;7.724;2024-02-21T05:16:22;2.80;;;2.60;;
34928;SDS011;21133;48.048;7.724;2024-02-21T05:18:48;3.37;;;3.07;;
34928;SDS011;21133;48.048;7.724;2024-02-21T05:21:14;4.57;;;3.87;;
34928;SDS011;21133;48.048;7.724;2024-02-21T05:23:40;4.83;;;3.37;;
34928;SDS011;21133;48.048;7.724;2024-02-21T05:26:06;2.30;;;2.20;;
34928;SDS011;21133;48.048;7.724;2024-02-21T05:28:32;8.30;;;3.00;;
34928;SDS011;21133;48.048;7.724;2024-02-21T05:30:58;5.70;;;2.23;;
34928;SDS011;21133;48.048;7.724;2024-02-21T05:33:24;2.97;;;2.50;;
34928;SDS011;21133;48.048;7.724;2024-02-21T05:35:50;2.50;;;2.07;;
34928;SDS011;21133;48.048;7.724;2024-02-21T05:38:16;1.67;;;1.63;;
34928;SDS011;21133;48.048;7.724;2024-02-21T05:40:44;2.33;;;1.40;;
34928;SDS011;21133;48.048;7.724;2024-02-21T05:43:10;3.27;;;2.00;;
34928;SDS011;21133;48.048;7.724;2024-02-21T05:45:36;1.13;;;1.13;;
34928;SDS011;21133;48.048;7.724;2024-02-21T05:48:03;7.50;;;1.90;;
34928;SDS011;21133;48.048;7.724;2024-02-21T05:50:29;4.27;;;2.27;;
34928;SDS011;21133;48.048;7.724;2024-02-21T05:52:57;2.87;;;2.10;;
34928;SDS011;21133;48.048;7.724;2024-02-21T05:55:23;1.60;;;1.50;;
34928;SDS011;21133;48.048;7.724;2024-02-21T05:57:49;1.70;;;1.63;;
34928;SDS011;21133;48.048;7.724;2024-02-21T06:00:15;5.73;;;1.87;;
34928;SDS011;21133;48.048;7.724;2024-02-21T06:02:41;6.77;;;1.50;;
34928;SDS011;21133;48.048;7.724;2024-02-21T06:05:07;19.93;;;1.70;;
34928;SDS011;21133;48.048;7.724;2024-02-21T06:07:34;2.63;;;2.00;;
34928;SDS011;21133;48.048;7.724;2024-02-21T06:10:01;4.27;;;1.97;;
34928;SDS011;21133;48.048;7.724;2024-02-21T06:12:27;6.47;;;2.20;;
34928;SDS011;21133;48.048;7.724;2024-02-21T06:14:53;6.40;;;1.37;;
34928;SDS011;21133;48.048;7.724;2024-02-21T06:17:19;4.30;;;1.20;;
34928;SDS011;21133;48.048;7.724;2024-02-21T06:19:45;1.37;;;1.27;;
34928;SDS011;21133;48.048;7.724;2024-02-21T06:22:11;9.77;;;1.53;;
34928;SDS011;21133;48.048;7.724;2024-02-21T06:24:37;2.23;;;1.17;;
34928;SDS011;21133;48.048;7.724;2024-02-21T06:27:07;1.80;;;1.80;;
34928;SDS011;21133;48.048;7.724;2024-02-21T06:29:33;5.10;;;1.30;;
34928;SDS011;21133;48.048;7.724;2024-02-21T06:32:00;5.67;;;1.43;;
34928;SDS011;21133;48.048;7.724;2024-02-21T06:34:26;7.23;;;1.43;;
34928;SDS011;21133;48.048;7.724;2024-02-21T06:36:52;3.80;;;1.87;;
34928;SDS011;21133;48.048;7.724;2024-02-21T06:39:18;3.77;;;2.10;;
34928;SDS011;21133;48.048;7.724;2024-02-21T06:41:44;2.07;;;1.70;;
34928;SDS011;21133;48.048;7.724;2024-02-21T06:44:10;3.47;;;1.50;;
34928;SDS011;21133;48.048;7.724;2024-02-21T06:46:36;2.50;;;2.40;;
34928;SDS011;21133;48.048;7.724;2024-02-21T06:49:02;1.97;;;1.87;;
34928;SDS011;21133;48.048;7.724;2024-02-21T06:51:28;1.93;;;1.83;;
34928;SDS011;21133;48.048;7.724;2024-02-21T06:53:54;1.47;;;1.40;;
34928;SDS011;21133;48.048;7.724;2024-02-21T06:56:22;4.40;;;2.20;;
34928;SDS011;21133;48.048;7.724;2024-02-21T06:58:51;4.83;;;1.47;;
34928;SDS011;21133;48.048;7.724;2024-02-21T07:01:17;1.63;;;1.63;;
34928;SDS011;21133;48.048;7.724;2024-02-21T07:03:43;6.33;;;1.20;;
34928;SDS011;21133;48.048;7.724;2024-02-21T07:06:09;2.50;;;2.10;;
34928;SDS011;21133;48.048;7.724;2024-02-21T07:08:35;1.97;;;1.53;;
34928;SDS011;21133;48.048;7.724;2024-02-21T07:11:02;1.73;;;1.43;;
34928;SDS011;21133;48.048;7.724;2024-02-21T07:13:28;9.13;;;1.57;;
34928;SDS011;21133;48.048;7.724;2024-02-21T07:15:54;6.73;;;1.47;;
34928;SDS011;21133;48.048;7.724;2024-02-21T07:18:21;2.90;;;1.30;;
34928;SDS011;21133;48.048;7.724;2024-02-21T07:20:47;2.70;;;1.50;;
34928;SDS011;21133;48.048;7.724;2024-02-21T07:23:13;4.10;;;1.57;;
34928;SDS011;21133;48.048;7.724;2024-02-21T07:25:39;2.10;;;1.90;;
34928;SDS011;21133;48.048;7.724;2024-02-21T07:28:05;5.27;;;1.70;;
34928;SDS011;21133;48.048;7.724;2024-02-21T07:30:31;3.17;;;2.10;;
34928;SDS011;21133;48.048;7.724;2024-02-21T07:32:57;4.13;;;1.77;;
34928;SDS011;21133;48.048;7.724;2024-02-21T07:35:23;5.50;;;1.80;;
34928;SDS011;21133;48.048;7.724;2024-02-21T07:37:49;2.93;;;1.77;;
34928;SDS011;21133;48.048;7.724;2024-02-21T07:40:16;2.13;;;1.93;;
34928;SDS011;21133;48.048;7.724;2024-02-21T07:42:42;1.93;;;1.80;;
34928;SDS011;21133;48.048;7.724;2024-02-21T07:45:09;2.83;;;2.10;;
34928;SDS011;21133;48.048;7.724;2024-02-21T07:47:35;10.33;;;2.50;;
34928;SDS011;21133;48.048;7.724;2024-02-21T07:50:01;1.90;;;1.67;;
34928;SDS011;21133;48.048;7.724;2024-02-21T07:52:27;3.80;;;2.03;;
34928;SDS011;21133;48.048;7.724;2024-02-21T07:54:54;2.30;;;1.50;;
34928;SDS011;21133;48.048;7.724;2024-02-21T07:57:19;2.60;;;1.83;;
34928;SDS011;21133;48.048;7.724;2024-02-21T07:59:46;3.27;;;2.47;;
34928;SDS011;21133;48.048;7.724;2024-02-21T08:02:15;2.00;;;1.60;;
34928;SDS011;21133;48.048;7.724;2024-02-21T08:04:41;5.27;;;1.80;;
34928;SDS011;21133;48.048;7.724;2024-02-21T08:07:07;10.27;;;2.33;;
34928;SDS011;21133;48.048;7.724;2024-02-21T08:09:33;7.63;;;1.93;;
34928;SDS011;21133;48.048;7.724;2024-02-21T08:12:00;2.00;;;1.40;;
34928;SDS011;21133;48.048;7.724;2024-02-21T08:14:26;5.53;;;2.00;;
34928;SDS011;21133;48.048;7.724;2024-02-21T08:16:52;3.30;;;2.47;;
34928;SDS011;21133;48.048;7.724;2024-02-21T08:19:18;2.90;;;2.23;;
34928;SDS011;21133;48.048;7.724;2024-02-21T08:21:44;9.87;;;2.40;;
34928;SDS011;21133;48.048;7.724;2024-02-21T08:24:13;2.20;;;2.00;;
34928;SDS011;21133;48.048;7.724;2024-02-21T08:26:42;3.13;;;2.03;;
34928;SDS011;21133;48.048;7.724;2024-02-21T08:29:09;3.50;;;2.10;;
34928;SDS011;21133;48.048;7.724;2024-02-21T08:31:35;5.43;;;2.67;;
34928;SDS011;21133;48.048;7.724;2024-02-21T08:34:01;8.80;;;2.17;;
34928;SDS011;21133;48.048;7.724;2024-02-21T08:36:29;2.47;;;2.27;;
34928;SDS011;21133;48.048;7.724;2024-02-21T08:38:55;5.40;;;2.40;;
34928;SDS011;21133;48.048;7.724;2024-02-21T08:41:21;7.40;;;3.30;;
34928;SDS011;21133;48.048;7.724;2024-02-21T08:43:49;2.13;;;1.63;;
34928;SDS011;21133;48.048;7.724;2024-02-21T08:46:15;5.93;;;2.73;;
34928;SDS011;21133;48.048;7.724;2024-02-21T08:48:41;5.13;;;2.00;;
34928;SDS011;21133;48.048;7.724;2024-02-21T08:51:07;4.97;;;3.37;;
34928;SDS011;21133;48.048;7.724;2024-02-21T08:53:32;4.90;;;2.40;;
34928;SDS011;21133;48.048;7.724;2024-02-21T08:55:59;4.33;;;2.40;;
34928;SDS011;21133;48.048;7.724;2024-02-21T08:58:24;4.13;;;2.70;;
34928;SDS011;21133;48.048;7.724;2024-02-21T09:00:51;3.80;;;3.50;;
34928;SDS011;21133;48.048;7.724;2024-02-21T09:03:17;3.00;;;2.80;;
34928;SDS011;21133;48.048;7.724;2024-02-21T09:05:45;7.43;;;2.70;;
34928;SDS011;21133;48.048;7.724;2024-02-21T09:08:11;6.00;;;2.33;;
34928;SDS011;21133;48.048;7.724;2024-02-21T09:10:39;4.83;;;2.50;;
34928;SDS011;21133;48.048;7.724;2024-02-21T09:13:05;5.00;;;2.40;;
34928;SDS011;21133;48.048;7.724;2024-02-21T09:15:32;6.93;;;2.60;;
34928;SDS011;21133;48.048;7.724;2024-02-21T09:17:58;6.13;;;2.47;;
34928;SDS011;21133;48.048;7.724;2024-02-21T09:20:24;5.77;;;3.70;;
34928;SDS011;21133;48.048;7.724;2024-02-21T09:22:50;4.50;;;2.63;;
34928;SDS011;21133;48.048;7.724;2024-02-21T09:25:17;9.27;;;2.50;;
34928;SDS011;21133;48.048;7.724;2024-02-21T09:27:44;16.20;;;2.90;;
34928;SDS011;21133;48.048;7.724;2024-02-21T09:30:10;9.00;;;2.40;;
34928;SDS011;21133;48.048;7.724;2024-02-21T09:32:36;8.23;;;2.90;;
34928;SDS011;21133;48.048;7.724;2024-02-21T09:35:02;6.67;;;3.90;;
34928;SDS011;21133;48.048;7.724;2024-02-21T09:37:28;17.40;;;3.10;;
34928;SDS011;21133;48.048;7.724;2024-02-21T09:39:54;5.97;;;2.50;;
34928;SDS011;21133;48.048;7.724;2024-02-21T09:42:21;10.60;;;2.80;;
34928;SDS011;21133;48.048;7.724;2024-02-21T09:44:47;8.43;;;3.07;;
34928;SDS011;21133;48.048;7.724;2024-02-21T09:47:24;6.00;;;2.80;;
34928;SDS011;21133;48.048;7.724;2024-02-21T09:49:50;5.57;;;2.73;;
34928;SDS011;21133;48.048;7.724;2024-02-21T09:52:17;5.30;;;3.47;;
34928;SDS011;21133;48.048;7.724;2024-02-21T09:54:44;9.00;;;3.10;;
34928;SDS011;21133;48.048;7.724;2024-02-21T09:57:10;8.63;;;2.90;;
34928;SDS011;21133;48.048;7.724;2024-02-21T09:59:37;3.43;;;2.47;;
34928;SDS011;21133;48.048;7.724;2024-02-21T10:02:03;4.43;;;2.43;;
34928;SDS011;21133;48.048;7.724;2024-02-21T10:04:30;2.60;;;2.33;;
34928;SDS011;21133;48.048;7.724;2024-02-21T10:06:57;4.17;;;2.40;;
34928;SDS011;21133;48.048;7.724;2024-02-21T10:09:23;5.60;;;2.20;;
34928;SDS011;21133;48.048;7.724;2024-02-21T10:11:52;4.17;;;2.40;;
34928;SDS011;21133;48.048;7.724;2024-02-21T10:14:18;6.13;;;1.67;;
34928;SDS011;21133;48.048;7.724;2024-02-21T10:16:47;4.63;;;2.13;;
34928;SDS011;21133;48.048;7.724;2024-02-21T10:19:20;6.33;;;5.93;;
34928;SDS011;21133;48.048;7.724;2024-02-21T10:21:59;4.00;;;2.00;;
34928;SDS011;21133;48.048;7.724;2024-02-21T10:24:26;2.90;;;1.97;;
34928;SDS011;21133;48.048;7.724;2024-02-21T10:27:02;6.43;;;1.90;;
34928;SDS011;21133;48.048;7.724;2024-02-21T10:29:29;3.13;;;2.43;;
34928;SDS011;21133;48.048;7.724;2024-02-21T10:32:07;6.30;;;2.50;;
34928;SDS011;21133;48.048;7.724;2024-02-21T10:34:34;3.50;;;2.10;;
34928;SDS011;21133;48.048;7.724;2024-02-21T10:37:04;2.40;;;2.20;;
34928;SDS011;21133;48.048;7.724;2024-02-21T10:39:34;3.50;;;2.47;;
34928;SDS011;21133;48.048;7.724;2024-02-21T10:42:01;2.63;;;2.20;;
34928;SDS011;21133;48.048;7.724;2024-02-21T10:44:33;9.23;;;2.63;;
34928;SDS011;21133;48.048;7.724;2024-02-21T10:46:59;2.23;;;2.13;;
34928;SDS011;21133;48.048;7.724;2024-02-21T10:49:26;4.03;;;2.67;;
34928;SDS011;21133;48.048;7.724;2024-02-21T10:54:44;2.97;;;2.70;;
34928;SDS011;21133;48.048;7.724;2024-02-21T10:57:11;8.47;;;3.90;;
34928;SDS011;21133;48.048;7.724;2024-02-21T10:59:38;6.73;;;3.00;;
34928;SDS011;21133;48.048;7.724;2024-02-21T11:02:05;18.03;;;8.33;;
34928;SDS011;21133;48.048;7.724;2024-02-21T11:04:31;3.90;;;3.60;;
34928;SDS011;21133;48.048;7.724;2024-02-21T11:07:01;4.17;;;3.80;;
34928;SDS011;21133;48.048;7.724;2024-02-21T11:09:32;3.27;;;3.00;;
34928;SDS011;21133;48.048;7.724;2024-02-21T11:11:58;3.70;;;2.70;;
34928;SDS011;21133;48.048;7.724;2024-02-21T11:14:26;5.00;;;2.63;;
34928;SDS011;21133;48.048;7.724;2024-02-21T11:16:52;3.77;;;2.63;;
34928;SDS011;21133;48.048;7.724;2024-02-21T11:21:47;4.13;;;2.13;;
34928;SDS011;21133;48.048;7.724;2024-02-21T11:24:14;4.23;;;2.20;;
34928;SDS011;21133;48.048;7.724;2024-02-21T11:26:40;18.13;;;8.73;;
34928;SDS011;21133;48.048;7.724;2024-02-21T11:29:09;16.43;;;7.67;;
34928;SDS011;21133;48.048;7.724;2024-02-21T11:31:39;8.57;;;5.33;;
34928;SDS011;21133;48.048;7.724;2024-02-21T11:34:09;15.37;;;9.53;;
34928;SDS011;21133;48.048;7.724;2024-02-21T11:36:36;14.10;;;2.67;;
34928;SDS011;21133;48.048;7.724;2024-02-21T11:39:05;7.00;;;5.50;;
34928;SDS011;21133;48.048;7.724;2024-02-21T11:41:31;3.10;;;2.77;;
34928;SDS011;21133;48.048;7.724;2024-02-21T11:43:57;2.00;;;1.57;;
34928;SDS011;21133;48.048;7.724;2024-02-21T11:46:23;3.13;;;1.80;;
34928;SDS011;21133;48.048;7.724;2024-02-21T11:48:50;1.30;;;1.30;;
34928;SDS011;21133;48.048;7.724;2024-02-21T11:51:24;1.57;;;1.57;;
34928;SDS011;21133;48.048;7.724;2024-02-21T11:53:51;1.80;;;1.70;;
34928;SDS011;21133;48.048;7.724;2024-02-21T11:56:17;3.03;;;2.73;;
34928;SDS011;21133;48.048;7.724;2024-02-21T11:58:44;2.97;;;2.73;;
34928;SDS011;21133;48.048;7.724;2024-02-21T12:01:10;7.00;;;4.10;;
34928;SDS011;21133;48.048;7.724;2024-02-21T12:03:36;1.10;;;1.10;;
34928;SDS011;21133;48.048;7.724;2024-02-21T12:06:02;1.80;;;1.70;;
34928;SDS011;21133;48.048;7.724;2024-02-21T12:08:40;2.83;;;1.10;;
34928;SDS011;21133;48.048;7.724;2024-02-21T12:13:43;0.90;;;0.90;;
34928;SDS011;21133;48.048;7.724;2024-02-21T12:16:09;0.50;;;0.50;;
34928;SDS011;21133;48.048;7.724;2024-02-21T12:18:35;1.53;;;1.53;;
34928;SDS011;21133;48.048;7.724;2024-02-21T12:21:01;2.90;;;2.13;;
34928;SDS011;21133;48.048;7.724;2024-02-21T12:23:27;5.73;;;4.90;;
34928;SDS011;21133;48.048;7.724;2024-02-21T12:25:53;5.07;;;3.93;;
34928;SDS011;21133;48.048;7.724;2024-02-21T12:28:19;1.40;;;1.30;;
34928;SDS011;21133;48.048;7.724;2024-02-21T12:30:46;1.00;;;1.00;;
34928;SDS011;21133;48.048;7.724;2024-02-21T12:33:12;2.90;;;2.70;;
34928;SDS011;21133;48.048;7.724;2024-02-21T12:35:41;2.03;;;1.93;;
34928;SDS011;21133;48.048;7.724;2024-02-21T12:38:07;1.73;;;1.63;;
34928;SDS011;21133;48.048;7.724;2024-02-21T12:40:33;5.20;;;1.63;;
34928;SDS011;21133;48.048;7.724;2024-02-21T12:43:00;1.33;;;1.23;;
34928;SDS011;21133;48.048;7.724;2024-02-21T12:45:28;2.57;;;1.03;;
34928;SDS011;21133;48.048;7.724;2024-02-21T12:47:54;1.60;;;1.17;;
34928;SDS011;21133;48.048;7.724;2024-02-21T12:50:20;1.23;;;1.20;;
34928;SDS011;21133;48.048;7.724;2024-02-21T12:52:47;1.80;;;1.70;;
34928;SDS011;21133;48.048;7.724;2024-02-21T12:55:14;1.30;;;1.30;;
34928;SDS011;21133;48.048;7.724;2024-02-21T12:57:41;5.80;;;1.93;;
34928;SDS011;21133;48.048;7.724;2024-02-21T13:00:07;1.70;;;1.67;;
34928;SDS011;21133;48.048;7.724;2024-02-21T13:02:34;4.43;;;1.77;;
34928;SDS011;21133;48.048;7.724;2024-02-21T13:05:00;0.90;;;0.90;;
34928;SDS011;21133;48.048;7.724;2024-02-21T13:07:28;1.00;;;0.97;;
34928;SDS011;21133;48.048;7.724;2024-02-21T13:09:56;4.10;;;1.80;;
34928;SDS011;21133;48.048;7.724;2024-02-21T13:12:22;1.37;;;1.37;;
34928;SDS011;21133;48.048;7.724;2024-02-21T13:14:51;1.27;;;1.17;;
34928;SDS011;21133;48.048;7.724;2024-02-21T13:17:17;1.10;;;1.00;;
34928;SDS011;21133;48.048;7.724;2024-02-21T13:19:43;2.60;;;1.20;;
34928;SDS011;21133;48.048;7.724;2024-02-21T13:22:09;1.27;;;0.97;;
34928;SDS011;21133;48.048;7.724;2024-02-21T13:24:35;1.50;;;0.93;;
34928;SDS011;21133;48.048;7.724;2024-02-21T13:27:01;2.77;;;0.90;;
34928;SDS011;21133;48.048;7.724;2024-02-21T13:29:28;2.80;;;1.17;;
34928;SDS011;21133;48.048;7.724;2024-02-21T13:31:54;3.07;;;1.60;;
34928;SDS011;21133;48.048;7.724;2024-02-21T13:34:20;2.00;;;1.17;;
34928;SDS011;21133;48.048;7.724;2024-02-21T13:36:46;2.90;;;2.70;;
34928;SDS011;21133;48.048;7.724;2024-02-21T13:39:12;1.10;;;1.03;;
34928;SDS011;21133;48.048;7.724;2024-02-21T13:41:40;4.00;;;2.97;;
34928;SDS011;21133;48.048;7.724;2024-02-21T13:44:07;2.50;;;2.40;;
34928;SDS011;21133;48.048;7.724;2024-02-21T13:46:34;2.60;;;1.73;;
34928;SDS011;21133;48.048;7.724;2024-02-21T13:49:04;3.47;;;2.00;;
34928;SDS011;21133;48.048;7.724;2024-02-21T13:51:35;1.83;;;1.73;;
34928;SDS011;21133;48.048;7.724;2024-02-21T13:54:04;2.10;;;2.00;;
34928;SDS011;21133;48.048;7.724;2024-02-21T13:56:34;1.60;;;1.50;;
34928;SDS011;21133;48.048;7.724;2024-02-21T13:59:00;2.27;;;2.07;;
34928;SDS011;21133;48.048;7.724;2024-02-21T14:01:26;4.67;;;4.17;;
34928;SDS011;21133;48.048;7.724;2024-02-21T14:03:56;4.10;;;3.80;;
34928;SDS011;21133;48.048;7.724;2024-02-21T14:06:22;3.13;;;1.50;;
34928;SDS011;21133;48.048;7.724;2024-02-21T14:08:48;22.40;;;12.07;;
34928;SDS011;21133;48.048;7.724;2024-02-21T14:11:14;4.77;;;2.57;;
34928;SDS011;21133;48.048;7.724;2024-02-21T14:13:40;9.93;;;7.17;;
34928;SDS011;21133;48.048;7.724;2024-02-21T14:16:09;13.87;;;7.30;;
34928;SDS011;21133;48.048;7.724;2024-02-21T14:18:41;5.60;;;2.83;;
34928;SDS011;21133;48.048;7.724;2024-02-21T14:21:07;5.87;;;3.90;;
34928;SDS011;21133;48.048;7.724;2024-02-21T14:23:35;6.90;;;3.30;;
34928;SDS011;21133;48.048;7.724;2024-02-21T14:26:02;4.83;;;3.90;;
34928;SDS011;21133;48.048;7.724;2024-02-21T14:28:28;2.90;;;2.47;;
34928;SDS011;21133;48.048;7.724;2024-02-21T14:30:54;4.07;;;3.77;;
34928;SDS011;21133;48.048;7.724;2024-02-21T14:33:23;3.63;;;2.40;;
34928;SDS011;21133;48.048;7.724;2024-02-21T14:35:49;3.30;;;1.60;;
34928;SDS011;21133;48.048;7.724;2024-02-21T14:38:16;2.80;;;2.60;;
34928;SDS011;21133;48.048;7.724;2024-02-21T14:40:42;3.90;;;2.37;;
34928;SDS011;21133;48.048;7.724;2024-02-21T14:43:08;4.60;;;2.90;;
34928;SDS011;21133;48.048;7.724;2024-02-21T14:45:34;2.10;;;2.00;;
34928;SDS011;21133;48.048;7.724;2024-02-21T14:48:00;5.27;;;3.20;;
34928;SDS011;21133;48.048;7.724;2024-02-21T14:50:27;4.67;;;2.60;;